createdAt,value
2022-09-12T00:01:32.760Z,14.32
2022-09-12T00:04:00.098Z,15.45
2022-09-12T00:06:27.258Z,15.13
2022-09-12T00:08:54.532Z,14.35
2022-09-12T00:11:21.697Z,18.80
2022-09-12T00:13:48.933Z,14.95
2022-09-12T00:16:16.610Z,18.55
2022-09-12T00:18:45.272Z,15.82
2022-09-12T00:21:12.499Z,18.17
2022-09-12T00:23:39.707Z,14.77
2022-09-12T00:26:06.901Z,15.75
2022-09-12T00:28:34.083Z,14.65
2022-09-12T00:31:01.257Z,18.23
2022-09-12T00:33:28.749Z,24.60
2022-09-12T00:35:55.936Z,15.35
2022-09-12T00:38:23.262Z,20.40
2022-09-12T00:40:50.595Z,16.83
2022-09-12T00:43:17.830Z,18.55
2022-09-12T00:45:45.096Z,15.50
2022-09-12T00:48:12.481Z,15.57
2022-09-12T00:50:39.642Z,19.33
2022-09-12T00:53:06.846Z,16.02
2022-09-12T00:55:34.069Z,23.95
2022-09-12T00:58:01.324Z,22.58
2022-09-12T01:00:28.482Z,21.63
2022-09-12T01:02:55.739Z,20.65
2022-09-12T01:05:22.950Z,22.27
2022-09-12T01:07:50.368Z,26.67
2022-09-12T01:10:17.639Z,25.02
2022-09-12T01:12:44.906Z,24.98
2022-09-12T01:15:12.137Z,24.48
2022-09-12T01:17:39.500Z,35.70
2022-09-12T01:20:07.131Z,24.83
2022-09-12T01:22:34.364Z,28.45
2022-09-12T01:25:01.606Z,24.23
2022-09-12T01:27:28.850Z,30.85
2022-09-12T01:29:56.595Z,31.88
2022-09-12T01:32:23.958Z,27.33
2022-09-12T01:34:51.233Z,18.80
2022-09-12T01:37:18.500Z,21.90
2022-09-12T01:39:45.725Z,21.08
2022-09-12T01:42:12.952Z,29.58
2022-09-12T01:44:40.168Z,21.63
2022-09-12T01:47:09.413Z,18.42
2022-09-12T01:49:36.581Z,21.73
2022-09-12T01:52:04.563Z,25.27
2022-09-12T01:54:31.883Z,22.50
2022-09-12T01:56:59.075Z,19.90
2022-09-12T01:59:26.709Z,25.00
2022-09-12T02:01:55.593Z,20.83
2022-09-12T02:04:22.846Z,21.63
2022-09-12T02:06:50.064Z,20.40
2022-09-12T02:09:17.898Z,20.95
2022-09-12T02:11:45.110Z,19.42
2022-09-12T02:14:12.427Z,19.58
2022-09-12T02:16:39.830Z,18.55
2022-09-12T02:19:09.346Z,17.08
2022-09-12T02:21:36.550Z,14.85
2022-09-12T02:24:03.829Z,12.43
2022-09-12T02:26:31.036Z,15.18
2022-09-12T02:28:58.250Z,12.32
2022-09-12T02:31:25.510Z,14.27
2022-09-12T02:33:52.923Z,14.02
2022-09-12T02:36:22.229Z,15.63
2022-09-12T02:38:49.485Z,10.88
2022-09-12T02:41:16.813Z,11.48
2022-09-12T02:43:43.981Z,14.73
2022-09-12T02:46:11.271Z,12.27
2022-09-12T02:48:40.560Z,11.38
2022-09-12T02:51:08.709Z,15.20
2022-09-12T02:53:35.886Z,14.15
2022-09-12T02:56:03.097Z,11.38
2022-09-12T02:58:30.293Z,13.35
2022-09-12T03:00:57.544Z,11.63
2022-09-12T03:03:24.788Z,13.20
2022-09-12T03:05:52.007Z,11.75
2022-09-12T03:08:19.176Z,11.13
2022-09-12T03:10:46.433Z,12.30
2022-09-12T03:13:13.602Z,11.57
2022-09-12T03:15:40.817Z,12.48
2022-09-12T03:18:08.006Z,16.73
2022-09-12T03:20:35.205Z,7.72
2022-09-12T03:23:02.368Z,11.38
2022-09-12T03:25:29.605Z,13.63
2022-09-12T03:27:57.324Z,12.90
2022-09-12T03:30:24.611Z,14.32
2022-09-12T03:32:51.818Z,12.10
2022-09-12T03:35:22.830Z,9.95
2022-09-12T03:37:50.477Z,10.75
2022-09-12T03:40:17.846Z,10.77
2022-09-12T03:42:45.098Z,12.23
2022-09-12T03:45:12.406Z,13.50
2022-09-12T03:47:39.628Z,12.38
2022-09-12T03:50:06.905Z,8.25
2022-09-12T03:52:34.148Z,13.45
2022-09-12T03:55:01.453Z,18.30
2022-09-12T03:57:28.769Z,9.75
2022-09-12T03:59:55.978Z,12.48
2022-09-12T04:02:23.259Z,19.73
2022-09-12T04:04:50.448Z,12.40
2022-09-12T04:07:17.812Z,12.82
2022-09-12T04:09:44.998Z,12.00
2022-09-12T04:12:13.918Z,10.63
2022-09-12T04:14:41.158Z,11.23
2022-09-12T04:17:08.448Z,9.27
2022-09-12T04:19:35.631Z,10.80
2022-09-12T04:22:02.982Z,10.00
2022-09-12T04:24:30.213Z,11.75
2022-09-12T04:26:57.434Z,10.93
2022-09-12T04:29:24.618Z,13.65
2022-09-12T04:31:51.828Z,12.25
2022-09-12T04:34:19.546Z,13.07
2022-09-12T04:36:47.009Z,9.55
2022-09-12T04:39:14.188Z,10.98
2022-09-12T04:41:44.571Z,12.60
2022-09-12T04:44:11.907Z,14.43
2022-09-12T04:46:39.151Z,13.77
2022-09-12T04:49:06.390Z,13.95
2022-09-12T04:51:33.851Z,19.15
2022-09-12T04:54:01.125Z,18.23
2022-09-12T04:56:28.434Z,11.55
2022-09-12T04:58:55.752Z,12.60
2022-09-12T05:01:23.248Z,13.65
2022-09-12T05:03:50.509Z,11.38
2022-09-12T05:06:17.807Z,10.85
2022-09-12T05:08:45.066Z,10.93
2022-09-12T05:11:12.802Z,15.45
2022-09-12T05:13:40.170Z,16.48
2022-09-12T05:16:07.329Z,13.25
2022-09-12T05:18:34.565Z,11.90
2022-09-12T05:21:02.442Z,15.48
2022-09-12T05:23:29.702Z,15.00
2022-09-12T05:25:57.638Z,10.52
2022-09-12T05:28:24.945Z,10.50
2022-09-12T05:30:52.133Z,15.02
2022-09-12T05:33:24.493Z,11.23
2022-09-12T05:35:52.918Z,12.57
2022-09-12T05:38:20.305Z,8.55
2022-09-12T05:40:47.575Z,9.10
2022-09-12T05:43:14.827Z,10.05
2022-09-12T05:45:42.258Z,10.05
2022-09-12T05:48:09.559Z,8.77
2022-09-12T05:50:36.785Z,13.52
2022-09-12T05:53:04.041Z,11.32
2022-09-12T05:55:31.547Z,17.77
2022-09-12T05:57:58.910Z,7.95
2022-09-12T06:00:28.404Z,5.97
2022-09-12T06:02:58.838Z,10.80
2022-09-12T06:05:26.118Z,11.35
2022-09-12T06:07:53.375Z,14.32
2022-09-12T06:10:22.301Z,9.23
2022-09-12T06:12:49.501Z,8.00
2022-09-12T06:15:17.043Z,8.52
2022-09-12T06:17:46.412Z,10.70
2022-09-12T06:20:16.818Z,6.43
2022-09-12T06:22:44.133Z,9.98
2022-09-12T06:25:11.579Z,11.52
2022-09-12T06:27:38.736Z,10.05
2022-09-12T06:30:07.020Z,8.15
2022-09-12T06:32:34.874Z,10.00
2022-09-12T06:35:02.358Z,11.00
2022-09-12T06:37:29.591Z,11.20
2022-09-12T06:39:56.877Z,16.27
2022-09-12T06:42:24.830Z,9.50
2022-09-12T06:44:57.177Z,6.90
2022-09-12T06:47:24.470Z,5.55
2022-09-12T06:49:51.673Z,10.73
2022-09-12T06:52:18.974Z,8.77
2022-09-12T06:54:47.520Z,7.78
2022-09-12T06:57:14.809Z,10.35
2022-09-12T06:59:42.531Z,6.32
2022-09-12T07:02:10.015Z,7.35
2022-09-12T07:04:37.264Z,8.93
2022-09-12T07:07:04.572Z,10.75
2022-09-12T07:09:32.184Z,6.72
2022-09-12T07:12:00.870Z,7.63
2022-09-12T07:14:28.153Z,5.40
2022-09-12T07:16:55.471Z,6.68
2022-09-12T07:19:22.706Z,12.27
2022-09-12T07:21:50.034Z,9.85
2022-09-12T07:24:17.339Z,7.30
2022-09-12T07:26:44.569Z,8.05
2022-09-12T07:29:35.991Z,9.45
2022-09-12T07:32:01.660Z,6.50
2022-09-12T07:34:28.927Z,4.28
2022-09-12T07:36:56.118Z,3.55
2022-09-12T07:39:23.345Z,4.22
2022-09-12T07:41:50.651Z,7.80
2022-09-12T07:44:17.833Z,9.07
2022-09-12T07:46:45.037Z,8.50
2022-09-12T07:49:12.325Z,7.43
2022-09-12T07:51:39.511Z,5.65
2022-09-12T07:54:06.730Z,7.82
2022-09-12T07:56:38.714Z,3.65
2022-09-12T07:59:06.756Z,7.22
2022-09-12T08:01:34.027Z,7.93
2022-09-12T08:04:01.687Z,5.95
2022-09-12T08:06:30.351Z,4.40
2022-09-12T08:08:57.645Z,5.00
2022-09-12T08:11:25.051Z,5.72
2022-09-12T08:13:55.652Z,6.80
2022-09-12T08:16:23.131Z,4.43
2022-09-12T08:18:50.458Z,3.38
2022-09-12T08:21:17.644Z,6.03
2022-09-12T08:23:44.944Z,4.97
2022-09-12T08:26:12.242Z,4.50
2022-09-12T08:28:43.388Z,2.95
2022-09-12T08:31:10.693Z,10.25
2022-09-12T08:33:37.946Z,9.35
2022-09-12T08:36:05.800Z,4.18
2022-09-12T08:38:33.046Z,5.30
2022-09-12T08:41:00.295Z,3.00
2022-09-12T08:43:27.591Z,4.28
2022-09-12T08:45:54.892Z,5.57
2022-09-12T08:48:22.104Z,3.80
2022-09-12T08:50:50.140Z,2.95
2022-09-12T08:53:17.507Z,3.53
2022-09-12T08:55:44.760Z,4.90
2022-09-12T08:58:11.924Z,5.75
2022-09-12T09:00:40.640Z,4.80
2022-09-12T09:03:07.938Z,5.60
2022-09-12T09:05:35.146Z,2.10
2022-09-12T09:08:02.350Z,2.78
2022-09-12T09:10:29.550Z,3.72
2022-09-12T09:12:56.827Z,6.28
2022-09-12T09:15:25.021Z,3.65
2022-09-12T09:17:52.194Z,3.63
2022-09-12T09:20:21.128Z,5.22
2022-09-12T09:22:48.471Z,4.07
2022-09-12T09:25:16.166Z,3.70
2022-09-12T09:27:44.054Z,2.15
2022-09-12T09:30:11.341Z,4.03
2022-09-12T09:32:38.629Z,5.78
2022-09-12T09:35:05.886Z,6.35
2022-09-12T09:37:33.170Z,4.28
2022-09-12T09:40:00.415Z,5.05
2022-09-12T09:42:27.590Z,5.55
2022-09-12T09:44:54.876Z,4.25
2022-09-12T09:47:22.122Z,3.80
2022-09-12T09:49:49.499Z,2.95
2022-09-12T09:52:16.804Z,4.90
2022-09-12T09:54:44.067Z,5.78
2022-09-12T09:57:11.228Z,6.65
2022-09-12T09:59:38.518Z,6.93
2022-09-12T10:02:05.754Z,5.28
2022-09-12T10:04:34.532Z,5.85
2022-09-12T10:07:04.513Z,4.28
2022-09-12T10:09:34.877Z,8.98
2022-09-12T10:12:02.217Z,7.15
2022-09-12T10:14:29.556Z,4.00
2022-09-12T10:16:57.648Z,6.80
2022-09-12T10:19:26.075Z,4.80
2022-09-12T10:21:53.333Z,6.05
2022-09-12T10:24:20.521Z,8.32
2022-09-12T10:26:47.768Z,9.88
2022-09-12T10:29:15.126Z,13.52
2022-09-12T10:31:43.200Z,9.43
2022-09-12T10:34:10.399Z,4.82
2022-09-12T10:36:37.687Z,5.32
2022-09-12T10:39:04.827Z,5.32
2022-09-12T10:41:31.994Z,6.38
2022-09-12T10:43:59.227Z,10.00
2022-09-12T10:46:26.800Z,6.68
2022-09-12T10:48:54.079Z,10.10
2022-09-12T10:51:21.402Z,5.85
2022-09-12T10:53:48.722Z,4.25
2022-09-12T10:56:15.973Z,4.97
2022-09-12T10:58:43.221Z,2.08
2022-09-12T11:01:10.512Z,4.53
2022-09-12T11:03:37.805Z,4.20
2022-09-12T11:06:05.008Z,5.38
2022-09-12T11:08:32.905Z,3.55
2022-09-12T11:11:00.107Z,4.78
2022-09-12T11:13:27.473Z,4.72
2022-09-12T11:15:54.644Z,5.07
2022-09-12T11:18:21.923Z,2.67
2022-09-12T11:20:49.521Z,2.35
2022-09-12T11:23:17.143Z,2.72
2022-09-12T11:25:44.389Z,3.15
2022-09-12T11:28:11.660Z,4.07
2022-09-12T11:30:39.006Z,2.95
2022-09-12T11:33:06.393Z,4.03
2022-09-12T11:35:33.585Z,2.10
2022-09-12T11:38:00.869Z,4.43
2022-09-12T11:40:28.604Z,2.80
2022-09-12T11:42:56.234Z,2.55
2022-09-12T11:45:23.384Z,2.60
2022-09-12T11:47:50.645Z,2.63
2022-09-12T11:50:18.008Z,3.17
2022-09-12T11:52:45.247Z,4.15
2022-09-12T11:55:12.451Z,5.45
2022-09-12T11:57:40.094Z,6.82
2022-09-12T12:00:09.849Z,1.67
2022-09-12T12:02:37.547Z,4.60
2022-09-12T12:05:05.319Z,6.30
2022-09-12T12:07:32.711Z,4.43
2022-09-12T12:10:00.002Z,4.38
2022-09-12T12:12:27.280Z,5.22
2022-09-12T12:14:54.577Z,3.40
2022-09-12T12:17:21.890Z,2.03
2022-09-12T12:19:50.929Z,4.30
2022-09-12T12:22:18.544Z,3.53
2022-09-12T12:24:45.714Z,3.15
2022-09-12T12:27:12.943Z,2.45
2022-09-12T12:29:43.537Z,5.75
2022-09-12T12:32:11.552Z,1.80
2022-09-12T12:34:38.825Z,5.00
2022-09-12T12:37:07.414Z,1.98
2022-09-12T12:39:34.745Z,6.30
2022-09-12T12:42:02.057Z,3.00
2022-09-12T12:44:29.212Z,3.25
2022-09-12T12:46:56.511Z,3.58
2022-09-12T12:49:23.759Z,6.78
2022-09-12T12:51:51.006Z,3.80
2022-09-12T12:54:18.300Z,1.85
2022-09-12T12:56:45.614Z,3.00
2022-09-12T12:59:12.807Z,5.90
2022-09-12T13:01:41.202Z,2.97
2022-09-12T13:04:08.513Z,1.33
2022-09-12T13:06:35.992Z,1.38
2022-09-12T13:09:03.254Z,2.03
2022-09-12T13:11:30.563Z,4.82
2022-09-12T13:13:57.936Z,2.75
2022-09-12T13:16:25.224Z,7.57
2022-09-12T13:18:52.500Z,6.00
2022-09-12T13:21:19.737Z,2.22
2022-09-12T13:23:47.724Z,2.10
2022-09-12T13:26:14.973Z,6.15
2022-09-12T13:28:42.180Z,1.10
2022-09-12T13:31:09.448Z,3.30
2022-09-12T13:33:36.934Z,1.75
2022-09-12T13:36:04.121Z,1.92
2022-09-12T13:38:31.416Z,3.63
2022-09-12T13:40:58.989Z,7.78
2022-09-12T13:43:26.177Z,2.72
2022-09-12T13:45:53.425Z,2.58
2022-09-12T13:48:20.630Z,2.33
2022-09-12T13:50:47.887Z,4.72
2022-09-12T13:53:15.137Z,2.83
2022-09-12T13:55:42.485Z,5.97
2022-09-12T13:58:09.718Z,7.57
2022-09-12T14:00:37.947Z,3.65
2022-09-12T14:03:24.025Z,3.60
2022-09-12T14:05:51.268Z,4.28
2022-09-12T14:08:18.559Z,5.10
2022-09-12T14:10:47.832Z,5.40
2022-09-12T14:13:15.496Z,3.47
2022-09-12T14:15:42.749Z,3.22
2022-09-12T14:18:10.362Z,2.35
2022-09-12T14:20:37.825Z,1.60
2022-09-12T14:23:05.072Z,4.07
2022-09-12T14:25:32.489Z,5.05
2022-09-12T14:27:59.709Z,2.58
2022-09-12T14:30:26.940Z,6.00
2022-09-12T14:32:54.401Z,1.50
2022-09-12T14:35:21.694Z,1.85
2022-09-12T14:37:48.869Z,4.53
2022-09-12T14:40:16.200Z,2.70
2022-09-12T14:42:43.372Z,3.40
2022-09-12T14:45:13.168Z,6.13
2022-09-12T14:47:40.414Z,2.92
2022-09-12T14:50:11.096Z,2.42
2022-09-12T14:52:39.113Z,10.45
2022-09-12T14:55:06.316Z,4.50
2022-09-12T14:57:33.515Z,3.28
2022-09-12T15:00:00.727Z,4.45
2022-09-12T15:02:28.009Z,3.20
2022-09-12T15:04:55.318Z,1.23
2022-09-12T15:07:22.960Z,8.52
2022-09-12T15:09:50.225Z,13.60
2022-09-12T15:12:17.466Z,2.42
2022-09-12T15:14:44.672Z,4.15
2022-09-12T15:17:12.022Z,2.00
2022-09-12T15:19:39.218Z,1.83
2022-09-12T15:22:06.431Z,3.45
2022-09-12T15:24:33.601Z,2.22
2022-09-12T15:27:00.849Z,4.72
2022-09-12T15:29:28.081Z,3.22
2022-09-12T15:31:55.322Z,2.25
2022-09-12T15:34:22.522Z,3.72
2022-09-12T15:36:49.742Z,3.05
2022-09-12T15:39:16.996Z,3.22
2022-09-12T15:41:44.201Z,2.22
2022-09-12T15:44:11.408Z,2.88
2022-09-12T15:46:38.849Z,4.47
2022-09-12T15:49:07.033Z,8.02
2022-09-12T15:51:34.293Z,3.10
2022-09-12T15:54:01.553Z,1.67
2022-09-12T15:56:28.926Z,3.97
2022-09-12T15:59:00.163Z,3.22
2022-09-12T16:01:27.809Z,2.72
2022-09-12T16:03:55.293Z,6.03
2022-09-12T16:06:22.638Z,2.95
2022-09-12T16:08:49.967Z,1.42
2022-09-12T16:11:17.293Z,6.13
2022-09-12T16:13:44.445Z,3.15
2022-09-12T16:16:11.730Z,4.75
2022-09-12T16:18:38.954Z,4.20
2022-09-12T16:21:07.501Z,5.80
2022-09-12T16:23:39.424Z,3.75
2022-09-12T16:26:06.711Z,2.53
2022-09-12T16:28:34.099Z,2.60
2022-09-12T16:31:01.503Z,3.05
2022-09-12T16:33:28.760Z,2.85
2022-09-12T16:35:55.946Z,2.65
2022-09-12T16:38:23.226Z,1.60
2022-09-12T16:40:50.414Z,8.18
2022-09-12T16:43:17.816Z,3.67
2022-09-12T16:45:45.153Z,2.78
2022-09-12T16:48:12.501Z,7.03
2022-09-12T16:50:39.641Z,3.25
2022-09-12T16:53:06.995Z,6.35
2022-09-12T16:55:34.265Z,2.35
2022-09-12T16:58:01.555Z,2.15
2022-09-12T17:00:28.867Z,1.85
2022-09-12T17:02:56.222Z,2.85
2022-09-12T17:05:24.038Z,2.20
2022-09-12T17:07:51.363Z,2.47
2022-09-12T17:10:18.682Z,4.43
2022-09-12T17:12:45.885Z,4.30
2022-09-12T17:15:13.146Z,3.38
2022-09-12T17:17:40.411Z,3.55
2022-09-12T17:20:07.841Z,3.42
2022-09-12T17:22:35.063Z,6.63
2022-09-12T17:25:02.244Z,2.35
2022-09-12T17:27:29.537Z,4.47
2022-09-12T17:29:56.713Z,2.80
2022-09-12T17:32:24.025Z,4.68
2022-09-12T17:34:51.486Z,5.68
2022-09-12T17:37:18.772Z,2.92
2022-09-12T17:39:46.032Z,4.47
2022-09-12T17:42:13.307Z,4.43
2022-09-12T17:44:40.537Z,4.75
2022-09-12T17:47:07.770Z,3.78
2022-09-12T17:49:35.075Z,4.35
2022-09-12T17:52:02.438Z,7.00
2022-09-12T17:54:29.617Z,3.17
2022-09-12T17:56:56.942Z,6.25
2022-09-12T17:59:24.892Z,15.05
2022-09-12T18:02:11.144Z,13.57
2022-09-12T18:04:38.797Z,15.32
2022-09-12T18:07:06.024Z,14.75
2022-09-12T18:09:33.371Z,16.40
2022-09-12T18:12:00.563Z,22.27
2022-09-12T18:14:27.807Z,15.02
2022-09-12T18:16:57.182Z,14.98
2022-09-12T18:19:24.482Z,16.38
2022-09-12T18:21:51.713Z,9.35
2022-09-12T18:24:18.939Z,14.32
2022-09-12T18:26:46.100Z,8.57
2022-09-12T18:29:13.533Z,8.80
2022-09-12T18:31:40.799Z,11.13
2022-09-12T18:34:12.688Z,17.45
2022-09-12T18:36:39.968Z,7.97
2022-09-12T18:39:08.554Z,7.85
2022-09-12T18:41:36.080Z,10.48
2022-09-12T18:44:03.821Z,7.55
2022-09-12T18:46:31.069Z,8.98
2022-09-12T18:48:58.294Z,9.43
2022-09-12T18:51:25.910Z,9.85
2022-09-12T18:53:53.467Z,6.13
2022-09-12T18:56:20.720Z,5.65
2022-09-12T18:58:48.132Z,6.43
2022-09-12T19:01:15.601Z,8.63
2022-09-12T19:03:42.946Z,4.20
2022-09-12T19:06:11.732Z,5.45
2022-09-12T19:08:39.173Z,9.32
2022-09-12T19:11:06.515Z,5.88
2022-09-12T19:13:33.698Z,4.75
2022-09-12T19:16:01.553Z,3.75
2022-09-12T19:18:28.771Z,5.63
2022-09-12T19:20:55.963Z,4.07
2022-09-12T19:23:23.195Z,4.50
2022-09-12T19:25:50.428Z,3.15
2022-09-12T19:28:17.634Z,4.32
2022-09-12T19:30:45.041Z,2.78
2022-09-12T19:33:12.178Z,5.65
2022-09-12T19:35:39.411Z,5.10
2022-09-12T19:38:06.695Z,6.68
2022-09-12T19:40:33.943Z,5.45
2022-09-12T19:43:01.163Z,5.53
2022-09-12T19:45:28.538Z,4.65
2022-09-12T19:47:55.741Z,7.57
2022-09-12T19:50:22.949Z,3.05
2022-09-12T19:52:50.272Z,5.30
2022-09-12T19:55:17.740Z,8.02
2022-09-12T19:57:44.871Z,10.15
2022-09-12T20:00:12.248Z,4.97
2022-09-12T20:02:39.535Z,4.00
2022-09-12T20:05:06.941Z,7.00
2022-09-12T20:07:34.184Z,5.25
2022-09-12T20:10:01.975Z,7.82
2022-09-12T20:12:29.200Z,4.55
2022-09-12T20:14:56.657Z,4.25
2022-09-12T20:17:23.812Z,4.68
2022-09-12T20:19:51.094Z,7.75
2022-09-12T20:22:18.340Z,7.63
2022-09-12T20:24:45.601Z,7.13
2022-09-12T20:27:12.858Z,4.93
2022-09-12T20:29:40.120Z,6.82
2022-09-12T20:32:07.311Z,9.40
2022-09-12T20:34:34.510Z,5.88
2022-09-12T20:37:01.806Z,6.57
2022-09-12T20:39:29.141Z,6.07
2022-09-12T20:41:56.353Z,13.13
2022-09-12T20:44:23.718Z,10.77
2022-09-12T20:46:51.004Z,12.15
2022-09-12T20:49:18.328Z,14.93
2022-09-12T20:51:45.654Z,12.00
2022-09-12T20:54:12.912Z,11.95
2022-09-12T20:56:40.141Z,11.70
2022-09-12T20:59:10.772Z,12.38
2022-09-12T21:01:38.112Z,10.27
2022-09-12T21:04:05.485Z,12.32
2022-09-12T21:06:32.762Z,11.55
2022-09-12T21:09:00.462Z,12.82
2022-09-12T21:11:27.750Z,8.65
2022-09-12T21:13:55.210Z,10.48
2022-09-12T21:16:22.442Z,9.13
2022-09-12T21:18:49.708Z,9.15
2022-09-12T21:21:17.051Z,13.18
2022-09-12T21:23:44.306Z,10.38
2022-09-12T21:26:12.022Z,7.95
2022-09-12T21:28:39.337Z,11.30
2022-09-12T21:31:06.597Z,15.63
2022-09-12T21:33:33.942Z,7.18
2022-09-12T21:36:01.177Z,14.27
2022-09-12T21:38:28.358Z,10.88
2022-09-12T21:41:01.722Z,8.80
2022-09-12T21:43:30.067Z,8.10
2022-09-12T21:45:57.299Z,7.88
2022-09-12T21:48:24.574Z,12.80
2022-09-12T21:50:51.772Z,14.60
2022-09-12T21:53:19.052Z,17.17
2022-09-12T21:55:47.237Z,8.55
2022-09-12T21:58:14.583Z,7.97
2022-09-12T22:00:41.892Z,12.40
2022-09-12T22:03:10.410Z,12.65
2022-09-12T22:05:40.118Z,9.18
2022-09-12T22:08:07.370Z,12.05
2022-09-12T22:10:34.720Z,13.73
2022-09-12T22:13:02.078Z,8.45
2022-09-12T22:15:40.510Z,12.27
2022-09-12T22:18:08.560Z,14.50
2022-09-12T22:20:35.807Z,11.55
2022-09-12T22:23:24.797Z,9.80
2022-09-12T22:25:52.337Z,13.32
2022-09-12T22:28:19.810Z,10.85
2022-09-12T22:30:47.317Z,12.80
2022-09-12T22:33:14.465Z,12.20
2022-09-12T22:35:42.542Z,14.95
2022-09-12T22:38:09.791Z,15.88
2022-09-12T22:40:37.040Z,17.60
2022-09-12T22:43:04.927Z,12.02
2022-09-12T22:45:32.596Z,12.55
2022-09-12T22:48:00.916Z,12.25
2022-09-12T22:50:28.717Z,11.05
2022-09-12T22:52:55.960Z,12.20
2022-09-12T22:55:23.191Z,14.23
2022-09-12T22:57:50.360Z,15.77
2022-09-12T23:00:19.525Z,18.48
2022-09-12T23:02:46.862Z,14.65
2022-09-12T23:05:14.184Z,19.88
2022-09-12T23:07:41.454Z,11.68
2022-09-12T23:10:08.690Z,9.65
2022-09-12T23:12:35.854Z,12.18
2022-09-12T23:15:03.076Z,14.98
2022-09-12T23:17:30.298Z,10.98
2022-09-12T23:19:57.607Z,14.25
2022-09-12T23:22:24.801Z,15.60
2022-09-12T23:24:52.082Z,11.30
2022-09-12T23:27:19.284Z,20.92
2022-09-12T23:29:47.017Z,12.65
2022-09-12T23:32:14.224Z,15.65
2022-09-12T23:34:41.503Z,10.07
2022-09-12T23:37:08.772Z,10.50
2022-09-12T23:39:36.141Z,10.80
2022-09-12T23:42:03.384Z,8.88
2022-09-12T23:44:30.754Z,9.77
2022-09-12T23:46:57.948Z,10.27
2022-09-12T23:49:25.156Z,12.10
2022-09-12T23:51:52.373Z,9.40
2022-09-12T23:54:19.674Z,11.70
2022-09-12T23:56:46.930Z,15.20
2022-09-12T23:59:14.237Z,17.13
